Presque Isle, MI

2:05 AM EST on December 29, 2014 (GMT -0500)
Lotus Lake | Change Station
CLOSE
Current Station
Personal Weather Station
Location: Presque Isle, MI
Elevation: 617 ft
Nearby Weather Stations

Elev 617 ft 45.30 °N, 83.48 °W | Updated 13 minutes ago

Overcast
Overcast
18.5 °F
Feels Like 18 °F
N
2.7
Wind Variable Wind from NW

Today
High -- | Low -- °F
--% Chance of Precip.
Yesterday
High -- | Low -- °F
Precip. -- in
8:13 AM 4:59 PM
First Quarter, 56% visible
Pressure 30.22 in
Visibility 10.0 miles
Clouds Scattered Clouds 4200 ft
Windchill 18 °F
Dew Point 14 °F
Humidity 82%
Rainfall 0.00 in
Snow Depth Not available.
UV 0 out of 12
Pollen .10 out of 12
Air Quality Not available.
Flu Activity Not available.
METAR KPZQ 290655Z AUTO 27007KT 10SM SCT042 M07/M12 A3022 RMK AO2 T10661122

More Conditions Fewer Conditions

Pressure 30.22 in
Visibility 10.0 miles
Clouds Scattered Clouds 4200 ft
Windchill 18 °F
Dew Point 14 °F
Humidity 82%
Rainfall 0.00 in
Snow Depth Not available.
UV 0 out of 12
Pollen .10 out of 12
Air Quality Not available.
Flu Activity Not available.
METAR KPZQ 290655Z AUTO 27007KT 10SM SCT042 M07/M12 A3022 RMK AO2 T10661122

More Conditions Fewer Conditions

Nowcast | as of 2:00 am EST on December 29, 2014

At 3 am...partly cloudy. Scattered flurries. Temperature 18. Northwest winds 8 mph. At 5 am...partly cloudy. Scattered flurries. Temperature 16. Northwest winds 8 mph. At 7 am...mostly cloudy. Temperature 16. West winds 7 mph. At 9 am...mostly cloudy. Temperature 16. West winds 8 mph.

×

10-Day Weather Forecast

Almanac

Astronomy

Dec. 29, 2014 Rise Set
Actual Time
Civil Twilight
Nautical Twilight
Astronomical Twilight
Moon
Length of Visible Light
Length of Day
Tomorrow will be .
, % of the Moon is Illuminated

Today's Extremes

State Highs State Lows

Community

WunderPhotos

Upload Photos

1,781,547 photos uploaded!

WunderBlogs® & News

Nearby

Air Quality

  Air Quality AQ Index Pollutant
Not available.

Snow Depth

Station Depth Elevation

Earthquake Activity

City Distance Mag. Time & Date
Minimum magnitude displayed is 2.5.

Coastal Water Temperatures

Place Temperature

Nearby Weather Stations